createdAt,value
2017-01-30T00:00:35.555Z,0
2017-01-30T00:01:16.041Z,0
2017-01-30T00:01:56.555Z,0
2017-01-30T00:02:37.052Z,0
2017-01-30T00:03:17.576Z,0
2017-01-30T00:03:58.053Z,0
2017-01-30T00:04:38.530Z,0
2017-01-30T00:05:19.020Z,0
2017-01-30T00:05:59.513Z,0
2017-01-30T00:06:40.003Z,0
2017-01-30T00:07:21.410Z,0
2017-01-30T00:08:00.991Z,0
2017-01-30T00:08:41.480Z,0
2017-01-30T00:09:22.002Z,0
2017-01-30T00:10:02.462Z,0
2017-01-30T00:10:42.957Z,0
2017-01-30T00:11:23.447Z,0
2017-01-30T00:12:03.930Z,0
2017-01-30T00:12:44.412Z,0
2017-01-30T00:13:25.913Z,0
2017-01-30T00:14:05.570Z,0
2017-01-30T00:14:46.054Z,0
2017-01-30T00:15:26.546Z,0
2017-01-30T00:16:07.037Z,0
2017-01-30T00:16:47.540Z,0
2017-01-30T00:17:28.027Z,0
2017-01-30T00:18:08.513Z,0
2017-01-30T00:18:48.994Z,0
2017-01-30T00:19:29.488Z,0
2017-01-30T00:20:09.981Z,0
2017-01-30T00:20:50.473Z,0
2017-01-30T00:21:30.985Z,0
2017-01-30T00:22:11.481Z,0
2017-01-30T00:22:51.982Z,0
2017-01-30T00:23:32.469Z,0
2017-01-30T00:24:12.979Z,0
2017-01-30T00:24:53.464Z,0
2017-01-30T00:25:33.977Z,0
2017-01-30T00:26:14.465Z,0
2017-01-30T00:26:54.958Z,0
2017-01-30T00:27:35.464Z,0
2017-01-30T00:28:15.952Z,0
2017-01-30T00:28:56.433Z,0
2017-01-30T00:29:36.930Z,0
2017-01-30T00:30:17.424Z,0
2017-01-30T00:30:57.912Z,0
2017-01-30T00:31:38.423Z,0
2017-01-30T00:32:18.914Z,0
2017-01-30T00:32:59.397Z,0
2017-01-30T00:33:39.893Z,0
2017-01-30T00:34:20.385Z,0
2017-01-30T00:35:00.872Z,0
2017-01-30T00:35:41.362Z,0
2017-01-30T00:36:21.864Z,0
2017-01-30T00:37:02.355Z,0
2017-01-30T00:37:42.860Z,0
2017-01-30T00:38:23.351Z,0
2017-01-30T00:39:03.838Z,0
2017-01-30T00:39:44.321Z,0
2017-01-30T00:40:24.815Z,0
2017-01-30T00:41:05.310Z,0
2017-01-30T00:41:45.797Z,0
2017-01-30T00:42:26.284Z,0
2017-01-30T00:43:06.776Z,0
2017-01-30T00:43:47.578Z,0
2017-01-30T00:44:28.000Z,0
2017-01-30T00:45:08.594Z,0
2017-01-30T00:45:49.068Z,0
2017-01-30T00:46:29.559Z,0
2017-01-30T00:47:10.057Z,0
2017-01-30T00:47:50.562Z,0
2017-01-30T00:48:31.061Z,0
2017-01-30T00:49:11.550Z,0
2017-01-30T00:49:52.065Z,0
2017-01-30T00:50:32.558Z,0
2017-01-30T00:51:13.054Z,0
2017-01-30T00:51:53.554Z,0
2017-01-30T00:52:34.060Z,0
2017-01-30T00:53:14.556Z,0
2017-01-30T00:53:55.054Z,0
2017-01-30T00:54:35.552Z,0
2017-01-30T00:55:16.055Z,0
2017-01-30T00:55:56.537Z,0
2017-01-30T00:56:37.054Z,0
2017-01-30T00:57:17.548Z,0
2017-01-30T00:57:58.048Z,0
2017-01-30T00:58:38.545Z,0
2017-01-30T00:59:19.050Z,0
2017-01-30T00:59:59.535Z,0
2017-01-30T01:00:40.045Z,0
2017-01-30T01:01:20.537Z,0
2017-01-30T01:02:01.031Z,0
2017-01-30T01:02:41.546Z,0
2017-01-30T01:03:22.044Z,0
2017-01-30T01:04:02.535Z,0
2017-01-30T01:04:43.022Z,0
2017-01-30T01:05:23.524Z,0
2017-01-30T01:06:04.018Z,0
2017-01-30T01:06:44.514Z,0
2017-01-30T01:07:25.008Z,0
2017-01-30T01:08:05.491Z,0
2017-01-30T01:08:45.983Z,0
2017-01-30T01:09:26.490Z,0
2017-01-30T01:10:06.981Z,0
2017-01-30T01:10:47.485Z,0
2017-01-30T01:11:27.976Z,0
2017-01-30T01:12:08.462Z,0
2017-01-30T01:12:48.960Z,0
2017-01-30T01:13:29.450Z,0
2017-01-30T01:14:09.936Z,0
2017-01-30T01:14:50.692Z,0
2017-01-30T01:15:31.187Z,0
2017-01-30T01:16:11.686Z,0
2017-01-30T01:16:52.175Z,0
2017-01-30T01:17:32.688Z,0
2017-01-30T01:18:13.183Z,0
2017-01-30T01:18:53.684Z,0
2017-01-30T01:19:34.173Z,0
2017-01-30T01:20:14.660Z,0
2017-01-30T01:20:55.140Z,0
2017-01-30T01:21:35.636Z,0
2017-01-30T01:22:16.133Z,0
2017-01-30T01:22:56.615Z,0
2017-01-30T01:23:37.105Z,0
2017-01-30T01:24:17.584Z,0
2017-01-30T01:24:58.078Z,0
2017-01-30T01:25:38.576Z,0
2017-01-30T01:26:19.070Z,0
2017-01-30T01:26:59.571Z,0
2017-01-30T01:27:40.063Z,0
2017-01-30T01:28:20.579Z,0
2017-01-30T01:29:01.043Z,0
2017-01-30T01:29:41.537Z,0
2017-01-30T01:30:22.024Z,0
2017-01-30T01:31:02.509Z,0
2017-01-30T01:31:42.998Z,0
2017-01-30T01:32:23.481Z,0
2017-01-30T01:33:03.971Z,0
2017-01-30T01:33:44.466Z,0
2017-01-30T01:34:24.959Z,0
2017-01-30T01:35:05.467Z,0
2017-01-30T01:35:45.966Z,0
2017-01-30T01:36:26.464Z,0
2017-01-30T01:37:06.950Z,0
2017-01-30T01:37:47.461Z,0
2017-01-30T01:38:27.945Z,0
2017-01-30T01:39:08.462Z,0
2017-01-30T01:39:48.947Z,0
2017-01-30T01:40:29.444Z,0
2017-01-30T01:41:09.949Z,0
2017-01-30T01:41:50.431Z,0
2017-01-30T01:42:30.918Z,0
2017-01-30T01:43:11.393Z,0
2017-01-30T01:43:51.888Z,0
2017-01-30T01:44:32.394Z,0
2017-01-30T01:45:12.925Z,0
2017-01-30T01:45:53.419Z,0
2017-01-30T01:46:33.872Z,0
2017-01-30T01:47:14.358Z,0
2017-01-30T01:47:54.852Z,0
2017-01-30T01:48:35.349Z,0
2017-01-30T01:49:15.842Z,0
2017-01-30T01:49:56.325Z,0
2017-01-30T01:50:36.828Z,0
2017-01-30T01:51:17.314Z,0
2017-01-30T01:51:57.797Z,0
2017-01-30T01:52:38.285Z,0
2017-01-30T01:53:18.777Z,0
2017-01-30T01:53:59.291Z,0
2017-01-30T01:54:39.795Z,0
2017-01-30T01:55:20.291Z,0
2017-01-30T01:56:00.792Z,0
2017-01-30T01:56:41.278Z,0
2017-01-30T01:57:21.764Z,0
2017-01-30T01:58:02.248Z,0
2017-01-30T01:58:42.740Z,0
2017-01-30T01:59:23.238Z,0
2017-01-30T02:00:03.727Z,0
2017-01-30T02:00:44.217Z,0
2017-01-30T02:01:24.726Z,0
2017-01-30T02:02:05.212Z,0
2017-01-30T02:02:45.705Z,0
2017-01-30T02:03:26.197Z,0
2017-01-30T02:04:06.686Z,0
2017-01-30T02:04:47.179Z,0
2017-01-30T02:05:27.692Z,0
2017-01-30T02:06:08.194Z,0
2017-01-30T02:06:48.685Z,0
2017-01-30T02:07:29.179Z,0
2017-01-30T02:08:09.677Z,0
2017-01-30T02:08:50.165Z,0
2017-01-30T02:09:30.656Z,0
2017-01-30T02:10:11.397Z,0
2017-01-30T02:12:39.368Z,0
2017-01-30T02:13:19.861Z,0
2017-01-30T02:14:00.348Z,0
2017-01-30T02:14:40.848Z,0
2017-01-30T02:15:21.336Z,0
2017-01-30T02:16:01.832Z,0
2017-01-30T02:16:42.335Z,0
2017-01-30T02:17:22.820Z,0
2017-01-30T02:18:03.302Z,0
2017-01-30T02:18:43.793Z,0
2017-01-30T02:19:24.299Z,0
2017-01-30T02:20:04.779Z,0
2017-01-30T02:20:45.269Z,0
2017-01-30T02:21:25.745Z,0
2017-01-30T02:22:06.238Z,0
2017-01-30T02:22:46.741Z,0
2017-01-30T02:23:27.227Z,0
2017-01-30T02:24:07.712Z,0
2017-01-30T02:24:48.192Z,0
2017-01-30T02:25:28.687Z,0
2017-01-30T02:26:09.184Z,0
2017-01-30T02:26:49.661Z,0
2017-01-30T02:27:30.183Z,0
2017-01-30T02:28:10.671Z,0
2017-01-30T02:28:51.161Z,0
2017-01-30T02:29:31.650Z,0
2017-01-30T02:30:12.142Z,0
2017-01-30T02:30:52.634Z,0
2017-01-30T02:31:33.149Z,0
2017-01-30T02:32:13.627Z,0
2017-01-30T02:32:54.126Z,0
2017-01-30T02:33:34.628Z,0
2017-01-30T02:34:15.125Z,0
2017-01-30T02:34:55.628Z,0
2017-01-30T02:35:36.115Z,0
2017-01-30T02:36:16.602Z,0
2017-01-30T02:36:57.081Z,0
2017-01-30T02:37:37.587Z,0
2017-01-30T02:38:18.076Z,0
2017-01-30T02:38:58.568Z,0
2017-01-30T02:39:39.166Z,0
2017-01-30T02:40:19.667Z,0
2017-01-30T02:41:00.171Z,0
2017-01-30T02:41:40.670Z,0
2017-01-30T02:42:21.150Z,0
2017-01-30T02:43:01.657Z,0
2017-01-30T02:43:42.162Z,0
2017-01-30T02:44:22.656Z,0
2017-01-30T02:45:03.163Z,0
2017-01-30T02:45:43.921Z,0
2017-01-30T02:46:24.415Z,0
2017-01-30T02:47:04.914Z,0
2017-01-30T02:47:45.411Z,0
2017-01-30T02:48:25.891Z,0
2017-01-30T02:49:06.381Z,0
2017-01-30T02:49:46.888Z,0
2017-01-30T02:50:27.379Z,0
2017-01-30T02:51:07.878Z,0
2017-01-30T02:51:48.367Z,0
2017-01-30T02:52:28.859Z,0
2017-01-30T02:53:09.371Z,0
2017-01-30T02:53:49.850Z,0
2017-01-30T02:54:30.354Z,0
2017-01-30T02:55:10.859Z,0
2017-01-30T02:55:51.358Z,0
2017-01-30T02:56:31.842Z,0
2017-01-30T02:57:12.333Z,0
2017-01-30T02:57:52.827Z,0
2017-01-30T02:58:33.308Z,0
2017-01-30T02:59:13.806Z,0
2017-01-30T02:59:54.295Z,0
2017-01-30T03:00:34.786Z,0
2017-01-30T03:01:15.296Z,0
2017-01-30T03:01:55.799Z,0
2017-01-30T03:02:36.293Z,0
2017-01-30T03:03:16.776Z,0
2017-01-30T03:03:57.273Z,0
2017-01-30T03:04:37.773Z,0
2017-01-30T03:05:18.270Z,0
2017-01-30T03:05:58.761Z,0
2017-01-30T03:06:39.249Z,0
2017-01-30T03:07:19.748Z,0
2017-01-30T03:08:00.320Z,0
2017-01-30T03:08:40.805Z,0
2017-01-30T03:09:21.286Z,0
2017-01-30T03:10:01.798Z,0
2017-01-30T03:10:42.284Z,0
2017-01-30T03:11:22.788Z,0
2017-01-30T03:12:03.295Z,0
2017-01-30T03:12:43.823Z,0
2017-01-30T03:13:24.281Z,0
2017-01-30T03:14:04.769Z,0
2017-01-30T03:14:45.277Z,0
2017-01-30T03:15:25.760Z,0
2017-01-30T03:16:06.513Z,0
2017-01-30T03:16:46.936Z,0
2017-01-30T03:17:27.414Z,0
2017-01-30T03:18:07.898Z,0
2017-01-30T03:18:48.393Z,0
2017-01-30T03:19:28.885Z,0
2017-01-30T03:20:09.379Z,0
2017-01-30T03:20:49.865Z,0
2017-01-30T03:21:30.350Z,0
2017-01-30T03:22:10.848Z,0
2017-01-30T03:22:51.336Z,0
2017-01-30T03:23:31.824Z,0
2017-01-30T03:24:12.328Z,0
2017-01-30T03:24:52.819Z,0
2017-01-30T03:25:33.299Z,0
2017-01-30T03:26:13.789Z,0
2017-01-30T03:26:54.284Z,0
2017-01-30T03:27:34.778Z,0
2017-01-30T03:28:15.264Z,0
2017-01-30T03:28:55.755Z,0
2017-01-30T03:29:36.253Z,0
2017-01-30T03:30:16.744Z,0
2017-01-30T03:30:57.239Z,0
2017-01-30T03:31:37.730Z,0
2017-01-30T03:32:18.207Z,0
2017-01-30T03:32:58.694Z,0
2017-01-30T03:33:39.172Z,0
2017-01-30T03:34:19.672Z,0
2017-01-30T03:35:00.159Z,0
2017-01-30T03:35:40.647Z,0
2017-01-30T03:36:21.137Z,0
2017-01-30T03:37:01.638Z,0
2017-01-30T03:37:42.131Z,0
2017-01-30T03:38:22.634Z,0
2017-01-30T03:39:03.118Z,0
2017-01-30T03:39:43.603Z,0
2017-01-30T03:40:24.092Z,0
2017-01-30T03:41:04.585Z,0
2017-01-30T03:41:45.107Z,0
2017-01-30T03:42:25.601Z,0
2017-01-30T03:43:06.105Z,0
2017-01-30T03:43:46.614Z,0
2017-01-30T03:44:27.108Z,0
2017-01-30T03:45:07.596Z,0
2017-01-30T03:45:48.083Z,0
2017-01-30T03:46:28.563Z,0
2017-01-30T03:47:09.055Z,0
2017-01-30T03:47:49.559Z,0
2017-01-30T03:48:30.046Z,0
2017-01-30T03:49:10.533Z,0
2017-01-30T03:49:51.056Z,0
2017-01-30T03:50:31.552Z,0
2017-01-30T03:51:12.040Z,0
2017-01-30T03:51:52.524Z,0
2017-01-30T03:52:33.006Z,0
2017-01-30T03:53:13.503Z,0
2017-01-30T03:53:53.996Z,0
2017-01-30T03:54:34.488Z,0
2017-01-30T03:55:14.974Z,0
2017-01-30T03:55:55.464Z,0
2017-01-30T03:56:35.960Z,0
2017-01-30T03:57:16.449Z,0
2017-01-30T03:57:56.940Z,0
2017-01-30T03:58:37.446Z,0
2017-01-30T03:59:17.925Z,0
2017-01-30T03:59:58.413Z,0
2017-01-30T04:00:38.897Z,0
2017-01-30T04:01:19.406Z,0
2017-01-30T04:01:59.890Z,0
2017-01-30T04:02:40.374Z,0
2017-01-30T04:03:20.881Z,0
2017-01-30T04:04:01.366Z,0
2017-01-30T04:04:41.851Z,0
2017-01-30T04:05:22.336Z,0
2017-01-30T04:06:02.823Z,0
2017-01-30T04:06:43.339Z,0
2017-01-30T04:07:23.829Z,0
2017-01-30T04:08:04.331Z,0
2017-01-30T04:08:44.823Z,0
2017-01-30T04:09:25.306Z,0
2017-01-30T04:10:05.803Z,0
2017-01-30T04:10:46.293Z,0
2017-01-30T04:11:26.780Z,0
2017-01-30T04:12:07.276Z,0
2017-01-30T04:12:47.775Z,0
2017-01-30T04:13:28.263Z,0
2017-01-30T04:14:08.748Z,0
2017-01-30T04:14:49.239Z,0
2017-01-30T04:15:29.738Z,0
2017-01-30T04:16:10.223Z,0
2017-01-30T04:16:50.709Z,0
2017-01-30T04:17:31.199Z,0
2017-01-30T04:18:11.717Z,0
2017-01-30T04:18:52.218Z,0
2017-01-30T04:19:32.708Z,0
2017-01-30T04:20:13.200Z,0
2017-01-30T04:20:53.716Z,0
2017-01-30T04:21:34.218Z,0
2017-01-30T04:22:14.700Z,0
2017-01-30T04:22:55.199Z,0
2017-01-30T04:23:35.705Z,0
2017-01-30T04:24:16.193Z,0
2017-01-30T04:24:56.704Z,0
2017-01-30T04:25:37.212Z,0
2017-01-30T04:26:17.701Z,0
2017-01-30T04:26:58.187Z,0
2017-01-30T04:27:38.666Z,0
2017-01-30T04:28:19.159Z,0
2017-01-30T04:28:59.655Z,0
2017-01-30T04:29:40.154Z,0
2017-01-30T04:30:20.651Z,0
2017-01-30T04:31:01.143Z,0
2017-01-30T04:31:41.635Z,0
2017-01-30T04:32:22.141Z,0
2017-01-30T04:33:02.630Z,0
2017-01-30T04:33:43.109Z,0
2017-01-30T04:34:23.621Z,0
2017-01-30T04:35:04.107Z,0
2017-01-30T04:35:44.599Z,0
2017-01-30T04:36:25.083Z,0
2017-01-30T04:37:05.585Z,0
2017-01-30T04:37:46.076Z,0
2017-01-30T04:38:26.558Z,0
2017-01-30T04:39:07.052Z,0
2017-01-30T04:39:47.549Z,0
2017-01-30T04:40:28.031Z,0
2017-01-30T04:41:08.521Z,0
2017-01-30T04:41:49.005Z,0
2017-01-30T04:42:29.507Z,0
2017-01-30T04:43:10.002Z,0
2017-01-30T04:43:50.493Z,0
2017-01-30T04:44:30.990Z,0
2017-01-30T04:45:11.474Z,0
2017-01-30T04:45:51.960Z,0
2017-01-30T04:46:32.449Z,0
2017-01-30T04:47:12.940Z,0
2017-01-30T04:47:53.439Z,0
2017-01-30T04:48:33.922Z,0
2017-01-30T04:49:14.409Z,0
2017-01-30T04:49:54.897Z,0
2017-01-30T04:50:35.402Z,0
2017-01-30T04:51:15.891Z,0
2017-01-30T04:51:56.402Z,0
2017-01-30T04:52:36.906Z,0
2017-01-30T04:53:17.401Z,0
2017-01-30T04:53:57.890Z,0
2017-01-30T04:54:38.401Z,0
2017-01-30T04:55:18.874Z,0
2017-01-30T04:55:59.375Z,0
2017-01-30T04:56:39.877Z,0
2017-01-30T04:57:20.363Z,0
2017-01-30T04:58:00.848Z,0
2017-01-30T04:58:41.326Z,0
2017-01-30T04:59:21.823Z,0
2017-01-30T05:00:02.320Z,0
2017-01-30T05:00:42.806Z,0
2017-01-30T05:01:23.294Z,0
2017-01-30T05:02:03.787Z,0
2017-01-30T05:02:44.277Z,0
2017-01-30T05:03:24.765Z,0
2017-01-30T05:04:05.265Z,0
2017-01-30T05:04:45.790Z,0
2017-01-30T05:05:26.253Z,0
2017-01-30T05:06:06.742Z,0
2017-01-30T05:06:47.227Z,0
2017-01-30T05:07:27.726Z,0
2017-01-30T05:08:08.416Z,0
2017-01-30T05:08:48.901Z,0
2017-01-30T05:09:29.409Z,0
2017-01-30T05:10:09.908Z,0
2017-01-30T05:10:50.414Z,0
2017-01-30T05:11:30.896Z,0
2017-01-30T05:12:11.388Z,0
2017-01-30T05:12:51.869Z,0
2017-01-30T05:13:32.361Z,0
2017-01-30T05:14:12.856Z,0
2017-01-30T05:14:53.346Z,0
2017-01-30T05:15:33.839Z,0
2017-01-30T05:16:14.347Z,0
2017-01-30T05:16:54.833Z,0
2017-01-30T05:17:35.311Z,0
2017-01-30T05:18:15.806Z,0
2017-01-30T05:18:56.303Z,0
2017-01-30T05:19:36.791Z,0
2017-01-30T05:20:17.280Z,0
2017-01-30T05:20:57.794Z,0
2017-01-30T05:21:38.262Z,0
2017-01-30T05:22:18.751Z,0
2017-01-30T05:22:59.247Z,0
2017-01-30T05:23:39.744Z,0
2017-01-30T05:24:20.295Z,0
2017-01-30T05:25:00.779Z,0
2017-01-30T05:25:41.291Z,0
2017-01-30T05:26:21.784Z,0
2017-01-30T05:27:02.296Z,0
2017-01-30T05:27:42.869Z,0
2017-01-30T05:28:23.363Z,0
2017-01-30T05:29:03.850Z,0
2017-01-30T05:29:44.350Z,0
2017-01-30T05:30:24.841Z,0
2017-01-30T05:31:05.339Z,0
2017-01-30T05:31:45.841Z,0
2017-01-30T05:32:26.328Z,0
2017-01-30T05:33:06.823Z,0
2017-01-30T05:33:47.337Z,0
2017-01-30T05:34:27.838Z,0
2017-01-30T05:35:08.322Z,0
2017-01-30T05:35:48.812Z,0
2017-01-30T05:36:29.298Z,0
2017-01-30T05:37:09.799Z,0
2017-01-30T05:37:50.288Z,0
2017-01-30T05:38:30.780Z,0
2017-01-30T05:39:11.277Z,0
2017-01-30T05:39:51.766Z,0
2017-01-30T05:40:32.258Z,0
2017-01-30T05:41:12.760Z,0
2017-01-30T05:41:53.241Z,0
2017-01-30T05:42:33.728Z,0
2017-01-30T05:43:14.217Z,0
2017-01-30T05:43:54.702Z,0
2017-01-30T05:44:35.193Z,0
2017-01-30T05:45:15.697Z,0
2017-01-30T05:45:56.184Z,0
2017-01-30T05:46:36.665Z,0
2017-01-30T05:47:17.148Z,0
2017-01-30T05:47:57.627Z,0
2017-01-30T05:48:38.121Z,0
2017-01-30T05:49:18.617Z,0
2017-01-30T05:49:59.104Z,0
2017-01-30T05:50:39.585Z,0
2017-01-30T05:51:20.070Z,0
2017-01-30T05:52:00.559Z,0
2017-01-30T05:52:41.048Z,0
2017-01-30T05:53:21.562Z,0
2017-01-30T05:54:02.066Z,0
2017-01-30T05:54:42.552Z,0
2017-01-30T05:55:23.063Z,0
2017-01-30T05:56:03.551Z,0
2017-01-30T05:56:44.061Z,0
2017-01-30T05:57:24.549Z,0
2017-01-30T05:58:05.064Z,0
2017-01-30T05:58:45.546Z,0
2017-01-30T05:59:26.061Z,0
2017-01-30T06:00:06.550Z,0
2017-01-30T06:00:47.064Z,0
2017-01-30T06:01:27.548Z,0
2017-01-30T06:02:08.052Z,0
2017-01-30T06:02:48.545Z,0
2017-01-30T06:03:29.035Z,0
2017-01-30T06:04:09.554Z,0
2017-01-30T06:04:50.048Z,0
2017-01-30T06:05:30.552Z,0
2017-01-30T06:06:11.057Z,0
2017-01-30T06:06:51.549Z,0
2017-01-30T06:07:32.057Z,0
2017-01-30T06:08:12.543Z,0
2017-01-30T06:08:53.026Z,0
2017-01-30T06:09:33.509Z,0
2017-01-30T06:10:14.016Z,0
2017-01-30T06:10:54.503Z,0
2017-01-30T06:11:34.997Z,0
2017-01-30T06:12:15.495Z,0
2017-01-30T06:12:55.994Z,0
2017-01-30T06:13:36.491Z,0
2017-01-30T06:14:16.983Z,0
2017-01-30T06:14:57.494Z,0
2017-01-30T06:15:37.985Z,0
2017-01-30T06:16:18.464Z,0
2017-01-30T06:16:58.947Z,0
2017-01-30T06:17:39.419Z,0
2017-01-30T06:18:19.947Z,0
2017-01-30T06:19:00.429Z,0
2017-01-30T06:19:40.913Z,0
2017-01-30T06:20:21.392Z,0
2017-01-30T06:21:01.889Z,0
2017-01-30T06:21:42.385Z,0
2017-01-30T06:22:22.886Z,0
2017-01-30T06:23:03.384Z,0
2017-01-30T06:23:43.871Z,0
2017-01-30T06:24:24.383Z,0
2017-01-30T06:25:04.868Z,0
2017-01-30T06:25:45.383Z,0
2017-01-30T06:26:25.872Z,0
2017-01-30T06:27:06.377Z,0
2017-01-30T06:27:46.868Z,0
2017-01-30T06:28:27.381Z,0
2017-01-30T06:29:07.982Z,0
2017-01-30T06:29:48.476Z,0
2017-01-30T06:30:28.975Z,0
2017-01-30T06:31:09.480Z,0
2017-01-30T06:31:49.972Z,0
2017-01-30T06:32:30.477Z,0
2017-01-30T06:33:10.963Z,0
2017-01-30T06:33:51.454Z,0
2017-01-30T06:34:31.937Z,0
2017-01-30T06:35:12.437Z,0
2017-01-30T06:35:52.930Z,0
2017-01-30T06:36:33.422Z,0
2017-01-30T06:37:13.929Z,0
2017-01-30T06:37:54.420Z,0
2017-01-30T06:38:34.922Z,0
2017-01-30T06:39:15.420Z,0
2017-01-30T06:39:56.802Z,0
2017-01-30T06:40:37.291Z,0
2017-01-30T06:41:17.772Z,0
2017-01-30T06:41:58.260Z,0
2017-01-30T06:42:38.745Z,0
2017-01-30T06:43:19.253Z,0
2017-01-30T06:43:59.746Z,0
2017-01-30T06:44:40.228Z,0
2017-01-30T06:45:20.732Z,0
2017-01-30T06:47:38.620Z,0
2017-01-30T06:48:19.116Z,4
2017-01-30T06:48:59.601Z,4
2017-01-30T06:49:40.089Z,4
2017-01-30T06:50:20.569Z,4
2017-01-30T06:51:01.052Z,4
2017-01-30T06:51:41.536Z,4
2017-01-30T06:52:22.025Z,4
2017-01-30T06:53:02.542Z,8
2017-01-30T06:53:43.006Z,4
2017-01-30T06:54:23.472Z,4
2017-01-30T06:55:03.967Z,8
2017-01-30T06:55:44.458Z,8
2017-01-30T06:56:24.951Z,8
2017-01-30T06:57:05.455Z,8
2017-01-30T06:57:45.943Z,8
2017-01-30T06:58:26.425Z,8
2017-01-30T06:59:06.926Z,8
2017-01-30T06:59:47.420Z,12
2017-01-30T07:00:27.908Z,12
2017-01-30T07:01:08.398Z,12
2017-01-30T07:01:48.903Z,12
2017-01-30T07:02:29.388Z,16
2017-01-30T07:03:09.895Z,12
2017-01-30T07:03:50.380Z,12
2017-01-30T07:04:30.869Z,16
2017-01-30T07:05:11.366Z,16
2017-01-30T07:05:51.862Z,16
2017-01-30T07:06:32.361Z,16
2017-01-30T07:07:12.859Z,20
2017-01-30T07:07:53.349Z,16
2017-01-30T07:08:33.858Z,20
2017-01-30T07:09:14.345Z,20
2017-01-30T07:09:54.941Z,24
2017-01-30T07:10:35.464Z,20
2017-01-30T07:11:15.935Z,24
2017-01-30T07:11:56.446Z,28
2017-01-30T07:12:36.938Z,28
2017-01-30T07:13:17.437Z,28
2017-01-30T07:13:57.964Z,28
2017-01-30T07:14:38.432Z,28
2017-01-30T07:15:18.920Z,32
2017-01-30T07:15:59.429Z,36
2017-01-30T07:16:39.916Z,36
2017-01-30T07:17:20.433Z,40
2017-01-30T07:18:00.931Z,36
2017-01-30T07:18:41.404Z,40
2017-01-30T07:19:21.898Z,40
2017-01-30T07:20:02.396Z,44
2017-01-30T07:20:42.889Z,44
2017-01-30T07:21:23.372Z,44
2017-01-30T07:22:03.875Z,48
2017-01-30T07:22:44.534Z,48
2017-01-30T07:23:25.059Z,48
2017-01-30T07:24:05.579Z,52
2017-01-30T07:24:46.056Z,56
2017-01-30T07:25:26.538Z,56
2017-01-30T07:26:07.039Z,56
2017-01-30T07:26:47.527Z,60
2017-01-30T07:27:28.026Z,64
2017-01-30T07:28:08.537Z,68
2017-01-30T07:28:49.013Z,72
2017-01-30T07:29:29.531Z,72
2017-01-30T07:30:10.015Z,76
2017-01-30T07:30:50.523Z,80
2017-01-30T07:31:31.021Z,84
2017-01-30T07:32:11.527Z,84
2017-01-30T07:32:52.012Z,88
2017-01-30T07:33:32.496Z,88
2017-01-30T07:34:12.977Z,88
2017-01-30T07:34:53.525Z,88
2017-01-30T07:35:34.004Z,92
2017-01-30T07:36:14.510Z,92
2017-01-30T07:36:55.012Z,96
2017-01-30T07:37:35.521Z,96
2017-01-30T07:38:16.009Z,96
2017-01-30T07:38:56.491Z,100
2017-01-30T07:39:36.971Z,104
2017-01-30T07:40:17.454Z,104
2017-01-30T07:40:57.968Z,108
2017-01-30T07:41:38.449Z,112
2017-01-30T07:42:18.940Z,112
2017-01-30T07:42:59.418Z,116
2017-01-30T07:43:39.910Z,112
2017-01-30T07:44:20.411Z,108
2017-01-30T07:45:00.895Z,104
2017-01-30T07:45:41.380Z,96
2017-01-30T07:46:21.895Z,92
2017-01-30T07:47:02.464Z,88
2017-01-30T07:47:42.959Z,84
2017-01-30T07:48:23.445Z,80
2017-01-30T07:49:03.934Z,80
2017-01-30T07:49:44.420Z,80
2017-01-30T07:50:24.899Z,80
2017-01-30T07:51:05.402Z,76
2017-01-30T07:51:45.890Z,80
2017-01-30T07:52:26.400Z,80
2017-01-30T07:53:06.888Z,84
2017-01-30T07:53:47.384Z,80
2017-01-30T07:54:27.879Z,80
2017-01-30T07:55:08.363Z,76
2017-01-30T07:55:48.890Z,76
2017-01-30T07:56:29.380Z,76
2017-01-30T07:57:09.888Z,76
2017-01-30T07:57:50.392Z,80
2017-01-30T07:58:30.885Z,84
2017-01-30T07:59:11.376Z,88
2017-01-30T07:59:51.863Z,92
2017-01-30T08:00:32.350Z,100
2017-01-30T08:01:12.844Z,108
2017-01-30T08:01:53.341Z,116
2017-01-30T08:02:33.847Z,124
2017-01-30T08:03:14.344Z,132
2017-01-30T08:03:54.845Z,136
2017-01-30T08:04:35.331Z,140
2017-01-30T08:05:15.836Z,144
2017-01-30T08:05:56.316Z,148
2017-01-30T08:06:36.802Z,152
2017-01-30T08:07:17.290Z,156
2017-01-30T08:07:57.772Z,164
2017-01-30T08:08:38.265Z,172
2017-01-30T08:09:18.766Z,176
2017-01-30T08:09:59.287Z,184
2017-01-30T08:10:39.777Z,184
2017-01-30T08:11:20.282Z,188
2017-01-30T08:12:00.778Z,192
2017-01-30T08:12:41.279Z,188
2017-01-30T08:13:21.781Z,192
2017-01-30T08:14:02.282Z,192
2017-01-30T08:14:42.808Z,192
2017-01-30T08:15:23.287Z,200
2017-01-30T08:16:03.776Z,204
2017-01-30T08:16:44.278Z,204
2017-01-30T08:17:24.789Z,200
2017-01-30T08:18:05.341Z,200
2017-01-30T08:18:45.827Z,196
2017-01-30T08:19:26.311Z,196
2017-01-30T08:20:06.797Z,192
2017-01-30T08:20:47.281Z,192
2017-01-30T08:21:27.773Z,188
2017-01-30T08:22:08.273Z,184
2017-01-30T08:22:48.772Z,180
2017-01-30T08:23:29.270Z,176
2017-01-30T08:24:09.771Z,172
2017-01-30T08:24:50.268Z,168
2017-01-30T08:25:30.764Z,164
2017-01-30T08:26:11.266Z,164
2017-01-30T08:26:51.756Z,160
2017-01-30T08:27:32.248Z,160
2017-01-30T08:28:12.728Z,160
2017-01-30T08:28:53.219Z,164
2017-01-30T08:29:33.765Z,168
2017-01-30T08:30:14.265Z,172
2017-01-30T08:30:55.106Z,176
2017-01-30T08:31:35.641Z,176
2017-01-30T08:32:16.128Z,176
2017-01-30T08:32:56.617Z,176
2017-01-30T08:33:37.121Z,180
2017-01-30T08:34:17.616Z,188
2017-01-30T08:34:58.103Z,192
2017-01-30T08:35:38.606Z,196
2017-01-30T08:36:19.353Z,200
2017-01-30T08:36:59.837Z,200
2017-01-30T08:37:40.326Z,196
2017-01-30T08:38:20.811Z,184
2017-01-30T08:39:01.293Z,176
2017-01-30T08:39:41.781Z,176
2017-01-30T08:40:22.288Z,176
2017-01-30T08:41:02.769Z,176
2017-01-30T08:41:43.266Z,180
2017-01-30T08:42:23.762Z,188
2017-01-30T08:43:04.251Z,200
2017-01-30T08:43:45.540Z,204
2017-01-30T08:44:25.256Z,216
2017-01-30T08:45:05.843Z,212
2017-01-30T08:45:46.193Z,208
2017-01-30T08:46:26.669Z,204
2017-01-30T08:47:07.173Z,200
2017-01-30T08:47:47.656Z,192
2017-01-30T08:48:28.143Z,196
2017-01-30T08:49:09.556Z,216
2017-01-30T08:49:49.204Z,216
2017-01-30T08:50:29.696Z,216
2017-01-30T08:51:10.188Z,212
2017-01-30T08:51:50.704Z,208
2017-01-30T08:52:31.199Z,208
2017-01-30T08:53:11.701Z,204
2017-01-30T08:53:52.214Z,188
2017-01-30T08:54:32.701Z,180
2017-01-30T08:55:13.206Z,180
2017-01-30T08:55:53.700Z,184
2017-01-30T08:56:34.196Z,188
2017-01-30T08:57:14.688Z,192
2017-01-30T08:57:55.163Z,188
2017-01-30T08:58:35.649Z,192
2017-01-30T08:59:16.144Z,192
2017-01-30T08:59:56.641Z,196
2017-01-30T09:00:37.134Z,204
2017-01-30T09:01:17.625Z,208
2017-01-30T09:01:58.161Z,200
2017-01-30T09:02:38.645Z,188
2017-01-30T09:03:19.141Z,184
2017-01-30T09:03:59.641Z,172
2017-01-30T09:04:40.144Z,168
2017-01-30T09:05:20.645Z,160
2017-01-30T09:06:01.480Z,152
2017-01-30T09:06:42.184Z,148
2017-01-30T09:07:22.671Z,144
2017-01-30T09:08:03.156Z,144
2017-01-30T09:08:43.650Z,144
2017-01-30T09:09:24.144Z,152
2017-01-30T09:10:04.632Z,156
2017-01-30T09:10:45.127Z,168
2017-01-30T09:11:25.642Z,184
2017-01-30T09:12:06.119Z,196
2017-01-30T09:12:46.599Z,204
2017-01-30T09:13:27.117Z,208
2017-01-30T09:14:07.573Z,208
2017-01-30T09:14:48.090Z,208
2017-01-30T09:15:28.592Z,204
2017-01-30T09:16:09.078Z,212
2017-01-30T09:16:49.564Z,228
2017-01-30T09:17:30.050Z,236
2017-01-30T09:18:10.539Z,244
2017-01-30T09:18:51.039Z,260
2017-01-30T09:19:31.524Z,268
2017-01-30T09:20:12.035Z,260
2017-01-30T09:20:52.524Z,252
2017-01-30T09:21:33.008Z,244
2017-01-30T09:22:13.490Z,248
2017-01-30T09:22:53.995Z,256
2017-01-30T09:23:34.477Z,268
2017-01-30T09:24:14.965Z,276
2017-01-30T09:24:55.454Z,292
2017-01-30T09:25:35.944Z,308
2017-01-30T09:26:16.453Z,332
2017-01-30T09:26:56.949Z,360
2017-01-30T09:27:37.438Z,388
2017-01-30T09:28:17.928Z,388
2017-01-30T09:28:58.408Z,388
2017-01-30T09:29:38.918Z,392
2017-01-30T09:30:19.411Z,396
2017-01-30T09:30:59.900Z,400
2017-01-30T09:31:40.387Z,412
2017-01-30T09:32:20.871Z,412
2017-01-30T09:33:01.371Z,400
2017-01-30T09:33:41.859Z,372
2017-01-30T09:34:22.365Z,352
2017-01-30T09:35:02.856Z,332
2017-01-30T09:35:43.341Z,316
2017-01-30T09:36:24.563Z,312
2017-01-30T09:37:04.415Z,312
2017-01-30T09:37:44.918Z,308
2017-01-30T09:38:25.388Z,292
2017-01-30T09:39:05.876Z,280
2017-01-30T09:39:46.358Z,292
2017-01-30T09:40:26.850Z,296
2017-01-30T09:41:07.337Z,296
2017-01-30T09:41:47.831Z,304
2017-01-30T09:42:28.323Z,304
2017-01-30T09:43:08.808Z,300
2017-01-30T09:43:49.297Z,284
2017-01-30T09:44:29.801Z,288
2017-01-30T09:45:10.286Z,288
2017-01-30T09:45:50.786Z,288
2017-01-30T09:46:31.295Z,292
2017-01-30T09:47:11.784Z,308
2017-01-30T09:47:52.292Z,316
2017-01-30T09:48:32.773Z,328
2017-01-30T09:49:13.257Z,304
2017-01-30T09:49:53.747Z,276
2017-01-30T09:50:34.242Z,260
2017-01-30T09:51:14.742Z,284
2017-01-30T09:51:55.247Z,292